sensor_id;sensor_type;location;lat;lon;timestamp;P1;durP1;ratioP1;P2;durP2;ratioP2
61036;SDS011;57313;47.040;15.498;2022-11-15T00:00:01;69.47;;;25.08;;
61036;SDS011;57313;47.040;15.498;2022-11-15T00:02:29;75.75;;;25.42;;
61036;SDS011;57313;47.040;15.498;2022-11-15T00:04:56;70.18;;;25.42;;
61036;SDS011;57313;47.040;15.498;2022-11-15T00:07:23;62.75;;;24.10;;
61036;SDS011;57313;47.040;15.498;2022-11-15T00:10:11;58.25;;;22.60;;
61036;SDS011;57313;47.040;15.498;2022-11-15T00:12:38;61.05;;;25.27;;
61036;SDS011;57313;47.040;15.498;2022-11-15T00:15:08;65.60;;;22.92;;
61036;SDS011;57313;47.040;15.498;2022-11-15T00:17:35;66.20;;;24.13;;
61036;SDS011;57313;47.040;15.498;2022-11-15T00:20:03;62.35;;;24.90;;
61036;SDS011;57313;47.040;15.498;2022-11-15T00:22:31;60.58;;;24.05;;
61036;SDS011;57313;47.040;15.498;2022-11-15T00:24:59;63.13;;;24.15;;
61036;SDS011;57313;47.040;15.498;2022-11-15T00:27:26;64.03;;;24.73;;
61036;SDS011;57313;47.040;15.498;2022-11-15T00:29:54;69.28;;;24.20;;
61036;SDS011;57313;47.040;15.498;2022-11-15T00:32:24;74.63;;;25.20;;
61036;SDS011;57313;47.040;15.498;2022-11-15T00:34:51;61.25;;;24.55;;
61036;SDS011;57313;47.040;15.498;2022-11-15T00:37:18;73.57;;;24.67;;
61036;SDS011;57313;47.040;15.498;2022-11-15T00:39:46;69.32;;;24.83;;
61036;SDS011;57313;47.040;15.498;2022-11-15T00:42:13;72.32;;;25.35;;
61036;SDS011;57313;47.040;15.498;2022-11-15T00:44:40;65.47;;;24.60;;
61036;SDS011;57313;47.040;15.498;2022-11-15T00:47:07;75.68;;;26.48;;
61036;SDS011;57313;47.040;15.498;2022-11-15T00:49:36;67.22;;;23.80;;
61036;SDS011;57313;47.040;15.498;2022-11-15T00:52:04;68.95;;;24.55;;
61036;SDS011;57313;47.040;15.498;2022-11-15T00:54:31;66.72;;;24.63;;
61036;SDS011;57313;47.040;15.498;2022-11-15T00:56:57;65.18;;;22.90;;
61036;SDS011;57313;47.040;15.498;2022-11-15T00:59:25;65.00;;;23.33;;
61036;SDS011;57313;47.040;15.498;2022-11-15T01:01:52;66.78;;;22.95;;
61036;SDS011;57313;47.040;15.498;2022-11-15T01:04:19;66.97;;;24.48;;
61036;SDS011;57313;47.040;15.498;2022-11-15T01:06:48;68.45;;;23.88;;
61036;SDS011;57313;47.040;15.498;2022-11-15T01:09:15;69.47;;;23.85;;
61036;SDS011;57313;47.040;15.498;2022-11-15T01:11:42;63.75;;;23.40;;
61036;SDS011;57313;47.040;15.498;2022-11-15T01:14:10;75.70;;;25.38;;
61036;SDS011;57313;47.040;15.498;2022-11-15T01:16:37;63.70;;;22.50;;
61036;SDS011;57313;47.040;15.498;2022-11-15T01:19:04;59.00;;;23.08;;
61036;SDS011;57313;47.040;15.498;2022-11-15T01:21:31;62.08;;;24.00;;
61036;SDS011;57313;47.040;15.498;2022-11-15T01:23:59;60.10;;;23.25;;
61036;SDS011;57313;47.040;15.498;2022-11-15T01:26:27;59.15;;;23.17;;
61036;SDS011;57313;47.040;15.498;2022-11-15T01:28:55;65.15;;;23.23;;
61036;SDS011;57313;47.040;15.498;2022-11-15T01:31:22;61.45;;;23.10;;
61036;SDS011;57313;47.040;15.498;2022-11-15T01:33:49;74.63;;;23.73;;
61036;SDS011;57313;47.040;15.498;2022-11-15T01:36:18;65.65;;;22.92;;
61036;SDS011;57313;47.040;15.498;2022-11-15T01:38:47;57.00;;;22.02;;
61036;SDS011;57313;47.040;15.498;2022-11-15T01:41:21;65.43;;;24.58;;
61036;SDS011;57313;47.040;15.498;2022-11-15T01:43:51;62.22;;;22.05;;
61036;SDS011;57313;47.040;15.498;2022-11-15T01:46:26;67.97;;;25.95;;
61036;SDS011;57313;47.040;15.498;2022-11-15T01:48:58;58.22;;;23.08;;
61036;SDS011;57313;47.040;15.498;2022-11-15T01:51:29;64.97;;;21.88;;
61036;SDS011;57313;47.040;15.498;2022-11-15T01:53:59;64.78;;;22.50;;
61036;SDS011;57313;47.040;15.498;2022-11-15T01:56:31;61.67;;;22.20;;
61036;SDS011;57313;47.040;15.498;2022-11-15T01:59:03;69.10;;;26.15;;
61036;SDS011;57313;47.040;15.498;2022-11-15T02:01:32;75.53;;;25.95;;
61036;SDS011;57313;47.040;15.498;2022-11-15T02:04:02;71.03;;;26.63;;
61036;SDS011;57313;47.040;15.498;2022-11-15T02:06:36;80.03;;;26.63;;
61036;SDS011;57313;47.040;15.498;2022-11-15T02:09:05;79.30;;;26.05;;
61036;SDS011;57313;47.040;15.498;2022-11-15T02:11:34;68.90;;;23.00;;
61036;SDS011;57313;47.040;15.498;2022-11-15T02:14:02;71.30;;;24.15;;
61036;SDS011;57313;47.040;15.498;2022-11-15T02:16:34;70.22;;;23.90;;
61036;SDS011;57313;47.040;15.498;2022-11-15T02:19:13;66.38;;;24.38;;
61036;SDS011;57313;47.040;15.498;2022-11-15T02:21:58;72.05;;;25.60;;
61036;SDS011;57313;47.040;15.498;2022-11-15T02:24:55;68.45;;;22.90;;
61036;SDS011;57313;47.040;15.498;2022-11-15T02:31:02;71.13;;;23.75;;
61036;SDS011;57313;47.040;15.498;2022-11-15T02:33:36;74.93;;;23.95;;
61036;SDS011;57313;47.040;15.498;2022-11-15T02:36:10;75.97;;;25.70;;
61036;SDS011;57313;47.040;15.498;2022-11-15T02:38:44;73.70;;;25.15;;
61036;SDS011;57313;47.040;15.498;2022-11-15T02:53:48;57.00;;;20.87;;
61036;SDS011;57313;47.040;15.498;2022-11-15T02:56:15;69.78;;;23.02;;
61036;SDS011;57313;47.040;15.498;2022-11-15T02:58:56;59.47;;;23.17;;
61036;SDS011;57313;47.040;15.498;2022-11-15T03:01:38;66.13;;;23.05;;
61036;SDS011;57313;47.040;15.498;2022-11-15T03:04:19;62.08;;;22.25;;
61036;SDS011;57313;47.040;15.498;2022-11-15T03:06:58;61.10;;;21.70;;
61036;SDS011;57313;47.040;15.498;2022-11-15T03:09:32;66.05;;;23.02;;
61036;SDS011;57313;47.040;15.498;2022-11-15T03:12:03;57.33;;;22.38;;
61036;SDS011;57313;47.040;15.498;2022-11-15T03:14:39;61.38;;;22.30;;
61036;SDS011;57313;47.040;15.498;2022-11-15T03:17:14;64.18;;;22.08;;
61036;SDS011;57313;47.040;15.498;2022-11-15T03:19:49;71.32;;;23.17;;
61036;SDS011;57313;47.040;15.498;2022-11-15T03:22:20;66.90;;;22.38;;
61036;SDS011;57313;47.040;15.498;2022-11-15T03:24:51;69.07;;;22.77;;
61036;SDS011;57313;47.040;15.498;2022-11-15T03:27:22;69.38;;;23.13;;
61036;SDS011;57313;47.040;15.498;2022-11-15T03:29:54;66.88;;;21.75;;
61036;SDS011;57313;47.040;15.498;2022-11-15T03:32:28;57.95;;;19.83;;
61036;SDS011;57313;47.040;15.498;2022-11-15T03:34:57;59.40;;;21.35;;
61036;SDS011;57313;47.040;15.498;2022-11-15T03:37:29;76.65;;;23.77;;
61036;SDS011;57313;47.040;15.498;2022-11-15T03:40:04;64.60;;;22.38;;
61036;SDS011;57313;47.040;15.498;2022-11-15T03:42:32;78.28;;;24.10;;
61036;SDS011;57313;47.040;15.498;2022-11-15T03:45:09;72.25;;;23.13;;
61036;SDS011;57313;47.040;15.498;2022-11-15T03:47:42;84.68;;;24.88;;
61036;SDS011;57313;47.040;15.498;2022-11-15T03:50:13;73.35;;;23.48;;
61036;SDS011;57313;47.040;15.498;2022-11-15T03:52:44;69.80;;;23.05;;
61036;SDS011;57313;47.040;15.498;2022-11-15T03:55:16;73.00;;;23.27;;
61036;SDS011;57313;47.040;15.498;2022-11-15T03:57:45;67.40;;;23.00;;
61036;SDS011;57313;47.040;15.498;2022-11-15T04:00:15;66.70;;;23.02;;
61036;SDS011;57313;47.040;15.498;2022-11-15T04:02:43;66.43;;;22.38;;
61036;SDS011;57313;47.040;15.498;2022-11-15T04:05:10;71.30;;;23.67;;
61036;SDS011;57313;47.040;15.498;2022-11-15T04:07:38;69.28;;;22.65;;
61036;SDS011;57313;47.040;15.498;2022-11-15T04:10:05;73.63;;;23.25;;
61036;SDS011;57313;47.040;15.498;2022-11-15T04:12:35;78.97;;;23.90;;
61036;SDS011;57313;47.040;15.498;2022-11-15T04:15:05;67.57;;;23.50;;
61036;SDS011;57313;47.040;15.498;2022-11-15T04:17:36;75.32;;;23.23;;
61036;SDS011;57313;47.040;15.498;2022-11-15T04:20:05;65.63;;;23.30;;
61036;SDS011;57313;47.040;15.498;2022-11-15T04:22:34;63.72;;;20.58;;
61036;SDS011;57313;47.040;15.498;2022-11-15T04:25:01;62.75;;;22.45;;
61036;SDS011;57313;47.040;15.498;2022-11-15T04:27:29;60.17;;;22.63;;
61036;SDS011;57313;47.040;15.498;2022-11-15T04:29:58;59.55;;;22.70;;
61036;SDS011;57313;47.040;15.498;2022-11-15T04:32:25;71.97;;;23.40;;
61036;SDS011;57313;47.040;15.498;2022-11-15T04:34:52;68.55;;;20.13;;
61036;SDS011;57313;47.040;15.498;2022-11-15T04:37:19;69.78;;;21.85;;
61036;SDS011;57313;47.040;15.498;2022-11-15T04:39:46;74.50;;;22.75;;
61036;SDS011;57313;47.040;15.498;2022-11-15T04:42:14;63.53;;;20.85;;
61036;SDS011;57313;47.040;15.498;2022-11-15T04:44:41;72.30;;;20.60;;
61036;SDS011;57313;47.040;15.498;2022-11-15T04:47:10;78.88;;;22.70;;
61036;SDS011;57313;47.040;15.498;2022-11-15T04:49:38;66.05;;;23.77;;
61036;SDS011;57313;47.040;15.498;2022-11-15T04:52:04;58.50;;;21.83;;
61036;SDS011;57313;47.040;15.498;2022-11-15T04:54:32;69.35;;;21.30;;
61036;SDS011;57313;47.040;15.498;2022-11-15T04:56:59;66.40;;;21.13;;
61036;SDS011;57313;47.040;15.498;2022-11-15T04:59:26;74.25;;;23.88;;
61036;SDS011;57313;47.040;15.498;2022-11-15T05:01:54;72.70;;;21.83;;
61036;SDS011;57313;47.040;15.498;2022-11-15T05:04:22;59.15;;;21.52;;
61036;SDS011;57313;47.040;15.498;2022-11-15T05:06:50;78.18;;;20.48;;
61036;SDS011;57313;47.040;15.498;2022-11-15T05:09:18;52.63;;;20.58;;
61036;SDS011;57313;47.040;15.498;2022-11-15T05:11:46;63.55;;;19.27;;
61036;SDS011;57313;47.040;15.498;2022-11-15T05:14:13;61.75;;;23.45;;
61036;SDS011;57313;47.040;15.498;2022-11-15T05:16:41;69.65;;;23.95;;
61036;SDS011;57313;47.040;15.498;2022-11-15T05:19:08;60.60;;;21.10;;
61036;SDS011;57313;47.040;15.498;2022-11-15T05:21:37;66.88;;;22.02;;
61036;SDS011;57313;47.040;15.498;2022-11-15T05:24:05;71.63;;;21.98;;
61036;SDS011;57313;47.040;15.498;2022-11-15T05:26:32;73.10;;;22.38;;
61036;SDS011;57313;47.040;15.498;2022-11-15T05:29:00;73.32;;;20.90;;
61036;SDS011;57313;47.040;15.498;2022-11-15T05:31:27;72.97;;;21.65;;
61036;SDS011;57313;47.040;15.498;2022-11-15T05:33:55;64.45;;;21.40;;
61036;SDS011;57313;47.040;15.498;2022-11-15T05:36:25;58.20;;;20.80;;
61036;SDS011;57313;47.040;15.498;2022-11-15T05:38:58;59.63;;;20.75;;
61036;SDS011;57313;47.040;15.498;2022-11-15T05:41:25;63.03;;;22.35;;
61036;SDS011;57313;47.040;15.498;2022-11-15T05:43:59;69.70;;;19.70;;
61036;SDS011;57313;47.040;15.498;2022-11-15T05:46:28;51.50;;;18.45;;
61036;SDS011;57313;47.040;15.498;2022-11-15T05:48:56;67.30;;;20.08;;
61036;SDS011;57313;47.040;15.498;2022-11-15T05:51:24;49.72;;;18.67;;
61036;SDS011;57313;47.040;15.498;2022-11-15T05:53:54;66.00;;;22.30;;
61036;SDS011;57313;47.040;15.498;2022-11-15T05:56:25;72.53;;;25.90;;
61036;SDS011;57313;47.040;15.498;2022-11-15T05:58:52;59.13;;;20.25;;
61036;SDS011;57313;47.040;15.498;2022-11-15T06:01:25;68.22;;;25.08;;
61036;SDS011;57313;47.040;15.498;2022-11-15T06:03:53;64.43;;;20.70;;
61036;SDS011;57313;47.040;15.498;2022-11-15T06:06:20;54.80;;;20.17;;
61036;SDS011;57313;47.040;15.498;2022-11-15T06:08:47;53.03;;;18.75;;
61036;SDS011;57313;47.040;15.498;2022-11-15T06:11:16;61.42;;;18.98;;
61036;SDS011;57313;47.040;15.498;2022-11-15T06:13:43;45.25;;;18.55;;
61036;SDS011;57313;47.040;15.498;2022-11-15T06:16:10;59.03;;;18.40;;
61036;SDS011;57313;47.040;15.498;2022-11-15T06:18:38;52.72;;;18.70;;
61036;SDS011;57313;47.040;15.498;2022-11-15T06:21:05;48.38;;;17.63;;
61036;SDS011;57313;47.040;15.498;2022-11-15T06:23:33;49.60;;;19.45;;
61036;SDS011;57313;47.040;15.498;2022-11-15T06:26:01;52.67;;;16.63;;
61036;SDS011;57313;47.040;15.498;2022-11-15T06:28:31;42.15;;;16.33;;
61036;SDS011;57313;47.040;15.498;2022-11-15T06:31:01;51.50;;;17.90;;
61036;SDS011;57313;47.040;15.498;2022-11-15T06:33:30;49.05;;;17.63;;
61036;SDS011;57313;47.040;15.498;2022-11-15T06:35:59;47.13;;;17.98;;
61036;SDS011;57313;47.040;15.498;2022-11-15T06:38:27;48.22;;;16.92;;
61036;SDS011;57313;47.040;15.498;2022-11-15T06:40:54;53.30;;;19.13;;
61036;SDS011;57313;47.040;15.498;2022-11-15T06:43:22;41.42;;;16.13;;
61036;SDS011;57313;47.040;15.498;2022-11-15T06:45:50;48.08;;;18.10;;
61036;SDS011;57313;47.040;15.498;2022-11-15T06:48:17;58.55;;;19.65;;
61036;SDS011;57313;47.040;15.498;2022-11-15T06:50:49;44.60;;;17.45;;
61036;SDS011;57313;47.040;15.498;2022-11-15T06:53:17;50.55;;;17.42;;
61036;SDS011;57313;47.040;15.498;2022-11-15T06:55:45;60.95;;;18.90;;
61036;SDS011;57313;47.040;15.498;2022-11-15T06:58:17;49.40;;;18.77;;
61036;SDS011;57313;47.040;15.498;2022-11-15T07:00:45;57.55;;;19.08;;
61036;SDS011;57313;47.040;15.498;2022-11-15T07:03:16;53.03;;;19.10;;
61036;SDS011;57313;47.040;15.498;2022-11-15T07:05:50;59.53;;;19.83;;
61036;SDS011;57313;47.040;15.498;2022-11-15T07:08:19;52.17;;;17.45;;
61036;SDS011;57313;47.040;15.498;2022-11-15T07:10:45;58.28;;;18.90;;
61036;SDS011;57313;47.040;15.498;2022-11-15T07:13:13;50.55;;;17.70;;
61036;SDS011;57313;47.040;15.498;2022-11-15T07:15:40;49.28;;;17.58;;
61036;SDS011;57313;47.040;15.498;2022-11-15T07:18:07;50.35;;;16.83;;
61036;SDS011;57313;47.040;15.498;2022-11-15T07:20:36;51.47;;;17.67;;
61036;SDS011;57313;47.040;15.498;2022-11-15T07:23:04;46.90;;;18.73;;
61036;SDS011;57313;47.040;15.498;2022-11-15T07:25:31;52.42;;;18.52;;
61036;SDS011;57313;47.040;15.498;2022-11-15T07:27:59;47.60;;;17.50;;
61036;SDS011;57313;47.040;15.498;2022-11-15T07:30:27;43.70;;;16.58;;
61036;SDS011;57313;47.040;15.498;2022-11-15T07:32:55;49.65;;;17.90;;
61036;SDS011;57313;47.040;15.498;2022-11-15T07:35:24;50.50;;;17.42;;
61036;SDS011;57313;47.040;15.498;2022-11-15T07:37:57;54.55;;;19.92;;
61036;SDS011;57313;47.040;15.498;2022-11-15T07:40:25;57.17;;;19.20;;
61036;SDS011;57313;47.040;15.498;2022-11-15T07:42:58;53.13;;;18.33;;
61036;SDS011;57313;47.040;15.498;2022-11-15T07:45:25;54.13;;;17.98;;
61036;SDS011;57313;47.040;15.498;2022-11-15T07:47:53;56.55;;;18.13;;
61036;SDS011;57313;47.040;15.498;2022-11-15T07:50:20;55.80;;;19.05;;
61036;SDS011;57313;47.040;15.498;2022-11-15T07:52:52;53.25;;;18.83;;
61036;SDS011;57313;47.040;15.498;2022-11-15T07:55:22;55.95;;;19.17;;
61036;SDS011;57313;47.040;15.498;2022-11-15T07:57:49;55.58;;;18.67;;
61036;SDS011;57313;47.040;15.498;2022-11-15T08:00:17;57.70;;;19.00;;
61036;SDS011;57313;47.040;15.498;2022-11-15T08:02:45;51.28;;;18.77;;
61036;SDS011;57313;47.040;15.498;2022-11-15T08:05:12;62.90;;;21.35;;
61036;SDS011;57313;47.040;15.498;2022-11-15T08:07:39;64.95;;;20.42;;
61036;SDS011;57313;47.040;15.498;2022-11-15T08:10:07;52.80;;;19.50;;
61036;SDS011;57313;47.040;15.498;2022-11-15T08:12:36;56.88;;;19.15;;
61036;SDS011;57313;47.040;15.498;2022-11-15T08:15:03;56.58;;;19.63;;
61036;SDS011;57313;47.040;15.498;2022-11-15T08:17:31;65.88;;;20.02;;
61036;SDS011;57313;47.040;15.498;2022-11-15T08:19:58;53.25;;;18.67;;
61036;SDS011;57313;47.040;15.498;2022-11-15T08:22:25;57.45;;;18.65;;
61036;SDS011;57313;47.040;15.498;2022-11-15T08:24:52;53.08;;;18.65;;
61036;SDS011;57313;47.040;15.498;2022-11-15T08:27:19;69.72;;;21.83;;
61036;SDS011;57313;47.040;15.498;2022-11-15T08:29:49;58.55;;;21.60;;
61036;SDS011;57313;47.040;15.498;2022-11-15T08:32:22;62.25;;;20.83;;
61036;SDS011;57313;47.040;15.498;2022-11-15T08:34:49;58.83;;;20.73;;
61036;SDS011;57313;47.040;15.498;2022-11-15T08:37:16;57.35;;;21.45;;
61036;SDS011;57313;47.040;15.498;2022-11-15T08:39:43;72.38;;;21.38;;
61036;SDS011;57313;47.040;15.498;2022-11-15T08:42:10;60.35;;;20.27;;
61036;SDS011;57313;47.040;15.498;2022-11-15T08:44:44;63.97;;;21.55;;
61036;SDS011;57313;47.040;15.498;2022-11-15T08:47:13;62.42;;;20.20;;
61036;SDS011;57313;47.040;15.498;2022-11-15T08:49:40;66.18;;;22.17;;
61036;SDS011;57313;47.040;15.498;2022-11-15T08:52:08;60.35;;;19.83;;
61036;SDS011;57313;47.040;15.498;2022-11-15T08:54:35;60.05;;;20.20;;
61036;SDS011;57313;47.040;15.498;2022-11-15T08:57:03;72.20;;;22.90;;
61036;SDS011;57313;47.040;15.498;2022-11-15T08:59:30;68.78;;;22.42;;
61036;SDS011;57313;47.040;15.498;2022-11-15T09:01:58;58.60;;;19.48;;
61036;SDS011;57313;47.040;15.498;2022-11-15T09:04:27;61.65;;;20.73;;
61036;SDS011;57313;47.040;15.498;2022-11-15T09:06:55;62.35;;;22.00;;
61036;SDS011;57313;47.040;15.498;2022-11-15T09:09:23;61.60;;;20.25;;
61036;SDS011;57313;47.040;15.498;2022-11-15T09:11:50;58.78;;;20.13;;
61036;SDS011;57313;47.040;15.498;2022-11-15T09:14:17;61.67;;;21.00;;
61036;SDS011;57313;47.040;15.498;2022-11-15T09:16:44;57.92;;;21.30;;
61036;SDS011;57313;47.040;15.498;2022-11-15T09:19:11;58.47;;;20.67;;
61036;SDS011;57313;47.040;15.498;2022-11-15T09:21:40;57.40;;;20.75;;
61036;SDS011;57313;47.040;15.498;2022-11-15T09:24:08;58.97;;;20.30;;
61036;SDS011;57313;47.040;15.498;2022-11-15T09:26:35;58.92;;;19.42;;
61036;SDS011;57313;47.040;15.498;2022-11-15T09:29:02;64.25;;;21.30;;
61036;SDS011;57313;47.040;15.498;2022-11-15T09:31:29;62.13;;;20.73;;
61036;SDS011;57313;47.040;15.498;2022-11-15T09:33:56;61.72;;;20.50;;
61036;SDS011;57313;47.040;15.498;2022-11-15T09:36:23;65.35;;;21.48;;
61036;SDS011;57313;47.040;15.498;2022-11-15T09:38:52;63.28;;;21.95;;
61036;SDS011;57313;47.040;15.498;2022-11-15T09:41:28;58.28;;;21.25;;
61036;SDS011;57313;47.040;15.498;2022-11-15T09:44:17;70.07;;;21.77;;
61036;SDS011;57313;47.040;15.498;2022-11-15T09:46:55;71.63;;;21.65;;
61036;SDS011;57313;47.040;15.498;2022-11-15T09:49:33;67.68;;;21.48;;
61036;SDS011;57313;47.040;15.498;2022-11-15T09:52:01;68.97;;;22.15;;
61036;SDS011;57313;47.040;15.498;2022-11-15T09:54:32;65.07;;;21.92;;
61036;SDS011;57313;47.040;15.498;2022-11-15T09:57:23;72.45;;;22.35;;
61036;SDS011;57313;47.040;15.498;2022-11-15T10:00:09;64.93;;;22.38;;
61036;SDS011;57313;47.040;15.498;2022-11-15T10:03:06;62.42;;;21.05;;
61036;SDS011;57313;47.040;15.498;2022-11-15T10:05:37;62.08;;;20.02;;
61036;SDS011;57313;47.040;15.498;2022-11-15T10:08:10;61.88;;;20.40;;
61036;SDS011;57313;47.040;15.498;2022-11-15T10:10:53;69.82;;;21.77;;
61036;SDS011;57313;47.040;15.498;2022-11-15T10:13:44;61.97;;;21.33;;
61036;SDS011;57313;47.040;15.498;2022-11-15T10:16:17;54.60;;;19.60;;
61036;SDS011;57313;47.040;15.498;2022-11-15T10:18:59;60.55;;;19.80;;
61036;SDS011;57313;47.040;15.498;2022-11-15T10:21:35;61.10;;;20.93;;
61036;SDS011;57313;47.040;15.498;2022-11-15T10:24:10;57.35;;;19.08;;
61036;SDS011;57313;47.040;15.498;2022-11-15T10:26:43;62.05;;;20.80;;
61036;SDS011;57313;47.040;15.498;2022-11-15T10:29:17;60.03;;;19.85;;
61036;SDS011;57313;47.040;15.498;2022-11-15T10:31:52;49.53;;;18.40;;
61036;SDS011;57313;47.040;15.498;2022-11-15T10:34:20;55.30;;;21.17;;
61036;SDS011;57313;47.040;15.498;2022-11-15T10:36:53;61.97;;;20.67;;
61036;SDS011;57313;47.040;15.498;2022-11-15T10:39:21;52.50;;;18.23;;
61036;SDS011;57313;47.040;15.498;2022-11-15T10:41:50;52.42;;;18.92;;
61036;SDS011;57313;47.040;15.498;2022-11-15T10:44:19;49.92;;;19.27;;
61036;SDS011;57313;47.040;15.498;2022-11-15T10:46:48;49.13;;;18.50;;
61036;SDS011;57313;47.040;15.498;2022-11-15T10:49:32;48.25;;;18.80;;
61036;SDS011;57313;47.040;15.498;2022-11-15T10:52:01;52.80;;;19.90;;
61036;SDS011;57313;47.040;15.498;2022-11-15T10:54:39;49.45;;;17.88;;
61036;SDS011;57313;47.040;15.498;2022-11-15T10:57:12;48.88;;;18.30;;
61036;SDS011;57313;47.040;15.498;2022-11-15T10:59:42;48.47;;;17.92;;
61036;SDS011;57313;47.040;15.498;2022-11-15T11:02:27;54.20;;;19.65;;
61036;SDS011;57313;47.040;15.498;2022-11-15T11:04:57;53.75;;;18.70;;
61036;SDS011;57313;47.040;15.498;2022-11-15T11:07:25;53.88;;;19.05;;
61036;SDS011;57313;47.040;15.498;2022-11-15T11:09:57;55.58;;;18.85;;
61036;SDS011;57313;47.040;15.498;2022-11-15T11:12:29;45.40;;;18.02;;
61036;SDS011;57313;47.040;15.498;2022-11-15T11:14:58;44.33;;;16.90;;
61036;SDS011;57313;47.040;15.498;2022-11-15T11:17:30;43.92;;;17.00;;
61036;SDS011;57313;47.040;15.498;2022-11-15T11:20:08;49.33;;;17.77;;
61036;SDS011;57313;47.040;15.498;2022-11-15T11:22:43;49.72;;;17.42;;
61036;SDS011;57313;47.040;15.498;2022-11-15T11:25:22;47.25;;;16.52;;
61036;SDS011;57313;47.040;15.498;2022-11-15T11:28:02;38.58;;;15.93;;
61036;SDS011;57313;47.040;15.498;2022-11-15T11:30:43;42.70;;;16.27;;
61036;SDS011;57313;47.040;15.498;2022-11-15T11:33:29;46.85;;;17.25;;
61036;SDS011;57313;47.040;15.498;2022-11-15T11:36:03;40.20;;;15.90;;
61036;SDS011;57313;47.040;15.498;2022-11-15T11:38:41;43.33;;;15.98;;
61036;SDS011;57313;47.040;15.498;2022-11-15T11:41:20;45.40;;;17.70;;
61036;SDS011;57313;47.040;15.498;2022-11-15T11:46:49;41.17;;;15.75;;
61036;SDS011;57313;47.040;15.498;2022-11-15T11:49:24;39.25;;;15.80;;
61036;SDS011;57313;47.040;15.498;2022-11-15T11:52:00;44.17;;;16.95;;
61036;SDS011;57313;47.040;15.498;2022-11-15T11:54:34;41.80;;;15.98;;
61036;SDS011;57313;47.040;15.498;2022-11-15T11:57:12;40.22;;;16.52;;
61036;SDS011;57313;47.040;15.498;2022-11-15T11:59:50;40.10;;;15.68;;
61036;SDS011;57313;47.040;15.498;2022-11-15T12:02:24;37.80;;;15.60;;
61036;SDS011;57313;47.040;15.498;2022-11-15T12:04:57;45.03;;;16.30;;
61036;SDS011;57313;47.040;15.498;2022-11-15T12:07:31;41.53;;;15.45;;
61036;SDS011;57313;47.040;15.498;2022-11-15T12:10:03;43.90;;;17.08;;
61036;SDS011;57313;47.040;15.498;2022-11-15T12:12:39;41.25;;;15.43;;
61036;SDS011;57313;47.040;15.498;2022-11-15T12:15:15;40.40;;;15.32;;
61036;SDS011;57313;47.040;15.498;2022-11-15T12:17:44;35.72;;;14.63;;
61036;SDS011;57313;47.040;15.498;2022-11-15T12:20:14;42.22;;;17.75;;
61036;SDS011;57313;47.040;15.498;2022-11-15T12:22:45;37.65;;;15.68;;
61036;SDS011;57313;47.040;15.498;2022-11-15T12:25:20;35.70;;;15.27;;
61036;SDS011;57313;47.040;15.498;2022-11-15T12:27:53;37.28;;;15.13;;
61036;SDS011;57313;47.040;15.498;2022-11-15T12:30:27;41.97;;;16.10;;
61036;SDS011;57313;47.040;15.498;2022-11-15T12:33:15;39.72;;;15.15;;
61036;SDS011;57313;47.040;15.498;2022-11-15T12:35:57;39.67;;;14.18;;
61036;SDS011;57313;47.040;15.498;2022-11-15T12:41:20;40.38;;;15.13;;
61036;SDS011;57313;47.040;15.498;2022-11-15T12:43:48;40.47;;;15.20;;
61036;SDS011;57313;47.040;15.498;2022-11-15T12:46:21;38.10;;;16.10;;
61036;SDS011;57313;47.040;15.498;2022-11-15T12:48:54;40.88;;;16.15;;
61036;SDS011;57313;47.040;15.498;2022-11-15T12:57:22;35.33;;;13.35;;
61036;SDS011;57313;47.040;15.498;2022-11-15T12:59:57;42.05;;;14.52;;
61036;SDS011;57313;47.040;15.498;2022-11-15T13:02:27;34.40;;;13.50;;
61036;SDS011;57313;47.040;15.498;2022-11-15T13:08:02;38.00;;;14.07;;
61036;SDS011;57313;47.040;15.498;2022-11-15T13:10:30;36.08;;;13.02;;
61036;SDS011;57313;47.040;15.498;2022-11-15T13:12:59;39.47;;;13.85;;
61036;SDS011;57313;47.040;15.498;2022-11-15T13:15:33;28.30;;;13.18;;
61036;SDS011;57313;47.040;15.498;2022-11-15T13:18:27;27.92;;;11.48;;
61036;SDS011;57313;47.040;15.498;2022-11-15T13:20:57;29.10;;;12.85;;
61036;SDS011;57313;47.040;15.498;2022-11-15T13:23:28;31.00;;;11.95;;
61036;SDS011;57313;47.040;15.498;2022-11-15T13:26:05;30.73;;;12.52;;
61036;SDS011;57313;47.040;15.498;2022-11-15T13:28:42;34.22;;;12.73;;
61036;SDS011;57313;47.040;15.498;2022-11-15T13:31:18;32.33;;;14.25;;
61036;SDS011;57313;47.040;15.498;2022-11-15T13:34:00;32.58;;;13.23;;
61036;SDS011;57313;47.040;15.498;2022-11-15T13:36:48;26.20;;;11.45;;
61036;SDS011;57313;47.040;15.498;2022-11-15T13:39:23;29.73;;;12.55;;
61036;SDS011;57313;47.040;15.498;2022-11-15T13:41:53;22.25;;;11.02;;
61036;SDS011;57313;47.040;15.498;2022-11-15T13:44:20;30.15;;;13.80;;
61036;SDS011;57313;47.040;15.498;2022-11-15T13:46:49;30.67;;;12.93;;
61036;SDS011;57313;47.040;15.498;2022-11-15T13:49:31;25.38;;;10.55;;
61036;SDS011;57313;47.040;15.498;2022-11-15T13:52:00;29.15;;;12.30;;
61036;SDS011;57313;47.040;15.498;2022-11-15T13:54:33;32.33;;;13.70;;
61036;SDS011;57313;47.040;15.498;2022-11-15T13:57:03;30.00;;;12.63;;
61036;SDS011;57313;47.040;15.498;2022-11-15T13:59:33;27.30;;;10.85;;
61036;SDS011;57313;47.040;15.498;2022-11-15T14:02:03;26.27;;;11.43;;
61036;SDS011;57313;47.040;15.498;2022-11-15T14:04:45;27.70;;;10.82;;
61036;SDS011;57313;47.040;15.498;2022-11-15T14:09:45;26.00;;;10.25;;
61036;SDS011;57313;47.040;15.498;2022-11-15T14:12:23;30.90;;;11.57;;
61036;SDS011;57313;47.040;15.498;2022-11-15T14:14:53;27.15;;;11.65;;
61036;SDS011;57313;47.040;15.498;2022-11-15T14:17:21;23.95;;;11.30;;
61036;SDS011;57313;47.040;15.498;2022-11-15T14:20:01;23.85;;;11.27;;
61036;SDS011;57313;47.040;15.498;2022-11-15T14:22:50;24.63;;;9.93;;
61036;SDS011;57313;47.040;15.498;2022-11-15T14:25:19;30.90;;;11.90;;
61036;SDS011;57313;47.040;15.498;2022-11-15T14:30:44;32.35;;;12.65;;
61036;SDS011;57313;47.040;15.498;2022-11-15T14:33:20;30.13;;;12.95;;
61036;SDS011;57313;47.040;15.498;2022-11-15T14:35:51;29.05;;;12.93;;
61036;SDS011;57313;47.040;15.498;2022-11-15T14:38:19;31.50;;;12.52;;
61036;SDS011;57313;47.040;15.498;2022-11-15T14:40:46;25.65;;;11.20;;
61036;SDS011;57313;47.040;15.498;2022-11-15T15:12:59;30.30;;;13.73;;
61036;SDS011;57313;47.040;15.498;2022-11-15T15:15:29;33.53;;;14.65;;
61036;SDS011;57313;47.040;15.498;2022-11-15T15:18:22;32.30;;;12.75;;
61036;SDS011;57313;47.040;15.498;2022-11-15T15:21:16;27.08;;;11.85;;
61036;SDS011;57313;47.040;15.498;2022-11-15T15:24:11;32.30;;;13.70;;
61036;SDS011;57313;47.040;15.498;2022-11-15T15:27:05;31.67;;;13.10;;
61036;SDS011;57313;47.040;15.498;2022-11-15T15:29:55;30.75;;;13.38;;
61036;SDS011;57313;47.040;15.498;2022-11-15T15:32:22;28.88;;;12.77;;
61036;SDS011;57313;47.040;15.498;2022-11-15T15:34:49;32.13;;;13.80;;
61036;SDS011;57313;47.040;15.498;2022-11-15T15:37:21;28.20;;;12.75;;